Time;durP1;ratioP1;P1;durP2;ratioP2;P2;SDS_P1;SDS_P2;PMS_P1;PMS_P2;Temp;Humidity;BMP_temperature;BMP_pressure;BME280_temperature;BME280_humidity;BME280_pressure;Samples;Min_cycle;Max_cycle;Signal;HPM_P1;HPM_P2
2020/12/17 00:02:39;;;;;;;14.57;12.47;;;;;;;10.24;100.00;100197.94;5099046;28;20489;-40
2020/12/17 00:05:27;;;;;;;15.37;12.87;;;;;;;10.49;100.00;100193.41;5099258;28;20296;-34
2020/12/17 00:08:18;;;;;;;13.10;11.70;;;;;;;10.56;100.00;100200.25;5098866;28;20199;-35
2020/12/17 00:11:04;;;;;;;13.87;11.87;;;;;;;10.73;100.00;100189.75;5098897;28;20198;-37
2020/12/17 00:13:53;;;;;;;15.03;11.87;;;;;;;10.69;100.00;100186.31;5099012;28;20191;-39
2020/12/17 00:16:39;;;;;;;15.37;11.13;;;;;;;10.61;100.00;100193.28;5098660;28;20285;-40
2020/12/17 00:19:25;;;;;;;12.03;10.33;;;;;;;10.59;100.00;100193.31;5098838;28;20201;-40
2020/12/17 00:22:11;;;;;;;14.30;10.43;;;;;;;10.70;100.00;100188.03;5098745;28;20203;-37
2020/12/17 00:24:58;;;;;;;14.17;12.03;;;;;;;10.73;100.00;100188.00;5098543;28;20681;-41
2020/12/17 00:27:45;;;;;;;11.70;10.37;;;;;;;10.73;100.00;100179.38;5098846;28;20261;-41
2020/12/17 00:30:30;;;;;;;12.67;11.20;;;;;;;10.64;100.00;100186.38;5098251;28;20231;-40
2020/12/17 00:33:16;;;;;;;14.13;10.53;;;;;;;10.67;100.00;100178.56;5098701;28;20485;-41
2020/12/17 00:36:02;;;;;;;15.80;11.13;;;;;;;10.74;100.00;100183.69;5099012;28;20485;-36
2020/12/17 00:38:48;;;;;;;12.63;10.43;;;;;;;10.95;100.00;100184.31;5098319;28;20295;-39
2020/12/17 00:41:37;;;;;;;12.70;9.77;;;;;;;10.83;100.00;100189.59;5098579;28;20215;-39
2020/12/17 00:44:23;;;;;;;11.73;9.60;;;;;;;10.92;100.00;100179.16;5098448;28;20199;-39
2020/12/17 00:47:09;;;;;;;12.37;9.73;;;;;;;11.08;100.00;100181.56;5097891;28;20642;-38
2020/12/17 00:49:55;;;;;;;12.80;10.03;;;;;;;11.02;100.00;100174.72;5098293;28;20368;-40
2020/12/17 00:52:41;;;;;;;10.00;8.97;;;;;;;10.93;100.00;100180.88;5098345;28;20219;-40
2020/12/17 00:55:27;;;;;;;10.00;8.97;;;;;;;11.10;100.00;100180.69;5097738;28;20706;-38
2020/12/17 00:58:15;;;;;;;11.47;8.80;;;;;;;11.14;100.00;100184.94;5097858;28;20195;-36
2020/12/17 01:01:06;;;;;;;11.23;9.63;;;;;;;11.16;100.00;100170.25;5098415;28;20203;-39
2020/12/17 01:03:52;;;;;;;10.33;9.20;;;;;;;11.17;100.00;100179.75;5098130;28;20269;-37
2020/12/17 01:06:37;;;;;;;11.57;9.03;;;;;;;11.05;100.00;100178.13;5098055;28;20451;-35
2020/12/17 01:09:23;;;;;;;9.53;8.47;;;;;;;11.32;100.00;100171.75;5097941;28;20281;-37
2020/12/17 01:12:09;;;;;;;10.93;8.20;;;;;;;11.11;100.00;100181.53;5097496;28;20216;-39
2020/12/17 01:14:55;;;;;;;8.73;7.83;;;;;;;11.22;100.00;100171.88;5098015;28;20200;-38
2020/12/17 01:17:41;;;;;;;9.97;8.10;;;;;;;11.28;100.00;100172.69;5097319;28;20207;-39
2020/12/17 01:20:27;;;;;;;10.77;8.23;;;;;;;11.28;100.00;100182.19;5097539;28;20199;-35
2020/12/17 01:23:12;;;;;;;10.83;8.17;;;;;;;11.39;100.00;100169.94;5097015;28;20199;-35
2020/12/17 01:25:58;;;;;;;9.93;7.73;;;;;;;11.29;100.00;100171.81;5096737;28;20203;-37
2020/12/17 01:28:44;;;;;;;9.30;8.00;;;;;;;11.31;100.00;100176.97;5097134;28;20492;-38
2020/12/17 01:31:31;;;;;;;9.67;7.87;;;;;;;11.36;100.00;100163.09;5096759;28;20260;-36
2020/12/17 01:34:17;;;;;;;8.63;7.83;;;;;;;11.49;100.00;100170.66;5097208;28;20644;-36
2020/12/17 01:37:03;;;;;;;9.33;7.70;;;;;;;11.37;100.00;100169.13;5097391;28;20253;-36
2020/12/17 01:39:49;;;;;;;11.13;7.67;;;;;;;11.35;100.00;100163.09;5097118;28;20196;-37
2020/12/17 01:42:34;;;;;;;8.43;7.43;;;;;;;11.37;100.00;100162.22;5097579;28;20194;-39
2020/12/17 01:45:20;;;;;;;12.73;8.10;;;;;;;11.38;100.00;100163.91;5097449;28;20273;-36
2020/12/17 01:48:08;;;;;;;8.23;7.43;;;;;;;11.36;100.00;100164.81;5097316;28;20202;-38
2020/12/17 01:50:53;;;;;;;11.83;7.43;;;;;;;11.30;100.00;100170.94;5097310;28;20190;-38
2020/12/17 01:53:40;;;;;;;9.73;7.60;;;;;;;11.32;100.00;100178.69;5097272;28;20631;-34
2020/12/17 01:56:29;;;;;;;8.97;7.53;;;;;;;11.39;100.00;100181.16;5096569;28;20485;-34
2020/12/17 01:59:21;;;;;;;13.47;7.20;;;;;;;11.42;100.00;100181.97;5100031;28;20196;-39
2020/12/17 02:02:10;;;;;;;7.87;7.07;;;;;;;11.32;100.00;100181.25;5101105;28;20366;-36
2020/12/17 02:04:57;;;;;;;7.77;6.33;;;;;;;11.24;100.00;100176.19;5100195;28;20203;-36
2020/12/17 02:07:58;;;;;;;7.93;6.20;;;;;;;11.28;100.00;100171.81;5101199;28;20538;-35
2020/12/17 02:10:44;;;;;;;10.07;6.87;;;;;;;11.15;100.00;100167.69;5101257;28;20226;-36
2020/12/17 02:13:34;;;;;;;8.00;7.13;;;;;;;11.22;100.00;100172.75;5100805;28;20241;-36
2020/12/17 02:16:19;;;;;;;8.80;6.77;;;;;;;11.12;100.00;100154.78;5100963;28;20199;-34
2020/12/17 02:19:05;;;;;;;8.40;6.50;;;;;;;11.16;100.00;100159.03;5101211;28;20192;-33
2020/12/17 02:21:55;;;;;;;7.27;6.23;;;;;;;11.26;100.00;100155.44;5101272;28;20329;-33
2020/12/17 02:24:41;;;;;;;11.73;7.47;;;;;;;11.39;100.00;100162.16;5100925;28;20214;-38
2020/12/17 02:27:27;;;;;;;8.77;6.70;;;;;;;11.06;100.00;100158.28;5101034;28;20329;-37
2020/12/17 02:30:13;;;;;;;8.57;6.67;;;;;;;11.15;100.00;100153.00;5100896;28;20474;-35
2020/12/17 02:32:59;;;;;;;9.73;7.30;;;;;;;11.03;100.00;100150.56;5100786;28;20663;-38
2020/12/17 02:35:44;;;;;;;8.10;6.57;;;;;;;11.01;100.00;100153.16;5100734;28;20311;-36
2020/12/17 02:38:30;;;;;;;7.60;6.77;;;;;;;11.22;100.00;100152.03;5100625;28;20239;-33
2020/12/17 02:41:17;;;;;;;8.40;6.93;;;;;;;11.03;100.00;100145.38;5100000;28;20272;-35
2020/12/17 02:44:03;;;;;;;8.67;6.63;;;;;;;11.13;100.00;100157.34;5100927;28;20198;-35
2020/12/17 02:46:48;;;;;;;9.97;7.73;;;;;;;11.00;100.00;100163.53;5100552;28;20203;-36
2020/12/17 02:49:35;;;;;;;9.63;6.57;;;;;;;11.20;100.00;100158.09;5100494;28;20223;-38
2020/12/17 02:52:20;;;;;;;7.17;6.47;;;;;;;10.96;100.00;100156.69;5100769;28;20191;-40
2020/12/17 02:55:06;;;;;;;9.67;7.00;;;;;;;10.97;100.00;100163.59;5100725;28;20244;-39
2020/12/17 02:57:53;;;;;;;8.07;6.33;;;;;;;10.94;100.00;100161.03;5100162;28;20277;-36
2020/12/17 03:00:39;;;;;;;10.20;6.47;;;;;;;10.91;100.00;100153.31;5100503;28;20191;-37
2020/12/17 03:03:24;;;;;;;9.63;6.40;;;;;;;11.14;100.00;100153.88;5100396;28;20198;-33
2020/12/17 03:06:10;;;;;;;8.20;6.70;;;;;;;10.96;100.00;100165.31;5099900;28;20613;-34
2020/12/17 03:08:56;;;;;;;6.67;5.93;;;;;;;10.87;100.00;100180.09;5099758;28;20230;-38
2020/12/17 03:11:41;;;;;;;7.27;6.13;;;;;;;11.00;100.00;100179.06;5100083;28;20249;-35
2020/12/17 03:14:28;;;;;;;8.80;6.37;;;;;;;10.85;100.00;100174.94;5100336;28;20208;-37
2020/12/17 03:17:14;;;;;;;6.97;5.73;;;;;;;11.03;100.00;100176.44;5100099;28;20221;-37
2020/12/17 03:20:00;;;;;;;7.07;6.13;;;;;;;10.76;100.00;100162.09;5100023;28;20659;-39
2020/12/17 03:22:45;;;;;;;6.07;5.43;;;;;;;11.00;100.00;100168.69;5100317;28;20190;-37
2020/12/17 03:25:31;;;;;;;6.53;5.83;;;;;;;10.77;100.00;100161.22;5100170;28;20195;-35
2020/12/17 03:28:18;;;;;;;6.80;5.60;;;;;;;10.96;100.00;100160.16;5100032;28;20215;-34
2020/12/17 03:31:05;;;;;;;7.87;6.03;;;;;;;11.03;100.00;100155.72;5099404;28;20199;-33
2020/12/17 03:33:51;;;;;;;6.27;5.60;;;;;;;11.09;100.00;100145.31;5099849;28;20200;-36
2020/12/17 03:36:37;;;;;;;5.63;5.13;;;;;;;11.16;100.00;100130.56;5099747;28;20199;-38
2020/12/17 03:39:23;;;;;;;6.40;5.80;;;;;;;11.03;100.00;100135.03;5099421;28;20258;-35
2020/12/17 03:42:08;;;;;;;6.77;5.87;;;;;;;11.13;100.00;100135.78;5099664;28;20727;-35
2020/12/17 03:44:54;;;;;;;6.77;5.43;;;;;;;11.13;100.00;100126.28;5099307;28;20589;-35
2020/12/17 03:47:40;;;;;;;7.30;5.43;;;;;;;11.12;100.00;100124.56;5099686;28;20200;-33
2020/12/17 03:50:27;;;;;;;5.90;5.30;;;;;;;11.03;100.00;100124.66;5099774;28;20226;-33
2020/12/17 03:53:13;;;;;;;7.63;5.50;;;;;;;11.12;100.00;100115.94;5099106;28;20196;-34
2020/12/17 03:55:59;;;;;;;7.03;5.17;;;;;;;11.04;100.00;100116.88;5099132;28;20207;-37
2020/12/17 03:58:44;;;;;;;5.70;5.10;;;;;;;11.30;100.00;100134.66;5099185;28;20195;-35
2020/12/17 04:01:30;;;;;;;7.57;5.03;;;;;;;11.43;100.00;100150.03;5099058;28;20241;-36
2020/12/17 04:04:16;;;;;;;6.87;5.07;;;;;;;11.42;100.00;100148.31;5098904;28;20293;-34
2020/12/17 04:07:02;;;;;;;6.30;5.63;;;;;;;11.15;100.00;100139.19;5099258;28;20671;-39
2020/12/17 04:09:48;;;;;;;9.37;5.40;;;;;;;11.12;100.00;100134.06;5098930;28;20319;-36
2020/12/17 04:12:34;;;;;;;6.20;5.03;;;;;;;11.07;100.00;100136.69;5098958;28;20219;-34
2020/12/17 04:15:20;;;;;;;5.27;4.77;;;;;;;11.08;100.00;100130.66;5098659;28;20287;-34
2020/12/17 04:18:05;;;;;;;5.23;4.70;;;;;;;11.29;100.00;100124.31;5099066;28;20353;-38
2020/12/17 04:20:52;;;;;;;5.93;5.00;;;;;;;11.15;100.00;100129.69;5098411;28;20199;-37
2020/12/17 04:23:38;;;;;;;5.90;5.00;;;;;;;11.11;100.00;100129.75;5099080;28;20593;-33
2020/12/17 04:26:23;;;;;;;6.37;5.20;;;;;;;10.98;100.00;100132.50;5098422;28;20199;-36
2020/12/17 04:29:11;;;;;;;5.83;4.93;;;;;;;10.85;100.00;100132.66;5098630;28;20257;-33
2020/12/17 04:31:56;;;;;;;7.23;5.40;;;;;;;11.01;100.00;100135.03;5099091;28;20603;-38
2020/12/17 04:34:42;;;;;;;6.13;4.87;;;;;;;11.05;100.00;100133.28;5098381;28;20199;-37
2020/12/17 04:37:28;;;;;;;5.87;4.60;;;;;;;11.24;100.00;100129.56;5098282;28;20234;-34
2020/12/17 04:40:14;;;;;;;5.83;5.00;;;;;;;11.05;100.00;100128.94;5098491;28;20214;-34
2020/12/17 04:43:00;;;;;;;5.43;4.43;;;;;;;11.08;100.00;100140.16;5098579;28;20188;-39
2020/12/17 04:45:45;;;;;;;5.93;4.80;;;;;;;11.09;100.00;100137.53;5097325;28;20203;-37
2020/12/17 04:48:32;;;;;;;6.17;4.80;;;;;;;11.09;100.00;100131.50;5097800;28;20245;-33
2020/12/17 04:51:19;;;;;;;5.33;4.77;;;;;;;10.90;100.00;100131.75;5097997;28;20266;-37
2020/12/17 04:54:09;;;;;;;5.87;4.87;;;;;;;10.92;100.00;100132.59;5098000;28;20240;-35
2020/12/17 04:57:07;;;;;;;6.80;4.80;;;;;;;11.06;100.00;100127.22;5097886;28;20218;-35
2020/12/17 04:59:52;;;;;;;4.80;4.27;;;;;;;11.02;100.00;100139.34;5098248;28;20199;-35
2020/12/17 05:02:38;;;;;;;6.00;5.00;;;;;;;10.99;100.00;100128.19;5098263;28;20595;-34
2020/12/17 05:05:24;;;;;;;5.37;4.30;;;;;;;11.05;100.00;100135.88;5098276;28;20443;-36
2020/12/17 05:08:10;;;;;;;4.87;4.43;;;;;;;11.15;100.00;100129.69;5097765;28;20293;-35
2020/12/17 05:10:56;;;;;;;5.50;4.80;;;;;;;11.17;100.00;100125.38;5097979;28;20509;-39
2020/12/17 05:13:43;;;;;;;5.47;4.50;;;;;;;11.15;100.00;100134.88;5097819;28;20262;-35
2020/12/17 05:16:29;;;;;;;7.97;5.23;;;;;;;11.13;100.00;100134.03;5098053;28;20314;-34
2020/12/17 05:19:14;;;;;;;6.70;5.60;;;;;;;11.13;100.00;100147.00;5097764;28;20191;-36
2020/12/17 05:22:01;;;;;;;7.17;5.20;;;;;;;11.29;100.00;100137.28;5098089;28;20203;-36
2020/12/17 05:24:47;;;;;;;4.77;4.37;;;;;;;11.35;100.00;100137.19;5097696;28;20203;-34
2020/12/17 05:27:35;;;;;;;5.13;4.63;;;;;;;11.43;100.00;100131.91;5097771;28;20682;-32
2020/12/17 05:30:29;;;;;;;5.20;4.70;;;;;;;11.43;100.00;100137.06;5097707;28;20278;-34
2020/12/17 05:33:15;;;;;;;7.83;4.43;;;;;;;11.40;100.00;100144.00;5097359;28;20196;-35
2020/12/17 05:36:01;;;;;;;5.57;4.53;;;;;;;11.39;100.00;100152.66;5097712;28;20321;-35
2020/12/17 05:38:48;;;;;;;6.47;4.90;;;;;;;11.36;100.00;100160.50;5097268;28;20663;-32
2020/12/17 05:41:34;;;;;;;6.33;4.70;;;;;;;11.41;100.00;100165.59;5097628;28;20203;-35
2020/12/17 05:44:29;;;;;;;7.83;5.30;;;;;;;11.11;100.00;100168.59;5097205;28;20211;-35
2020/12/17 05:47:16;;;;;;;7.13;4.50;;;;;;;11.10;100.00;100172.91;5096690;28;20203;-36
2020/12/17 05:50:06;;;;;;;6.00;4.53;;;;;;;11.28;100.00;100171.81;5096669;28;20477;-34
2020/12/17 05:52:53;;;;;;;6.10;5.37;;;;;;;11.23;100.00;100183.97;5097077;28;20195;-35
2020/12/17 05:55:38;;;;;;;5.33;4.83;;;;;;;11.31;100.00;100183.00;5097192;28;20191;-33
2020/12/17 05:58:36;;;;;;;8.33;5.50;;;;;;;11.38;100.00;100188.97;5097158;28;20257;-39
2020/12/17 06:01:27;;;;;;;5.80;5.23;;;;;;;11.23;100.00;100194.31;5097234;28;20261;-34
2020/12/17 06:04:16;;;;;;;6.97;5.60;;;;;;;11.24;100.00;100191.72;5096759;28;20609;-35
2020/12/17 06:07:04;;;;;;;6.23;5.63;;;;;;;11.25;100.00;100187.38;5096614;28;20253;-39
2020/12/17 06:10:03;;;;;;;7.97;5.87;;;;;;;11.29;100.00;100189.94;5094968;28;20323;-35
2020/12/17 06:12:50;;;;;;;6.57;5.50;;;;;;;11.33;100.00;100191.59;5094460;28;20199;-34
2020/12/17 06:15:38;;;;;;;5.93;5.23;;;;;;;11.22;100.00;100190.88;5096923;28;20199;-37
2020/12/17 06:18:25;;;;;;;15.00;12.37;;;;;;;11.37;100.00;100180.34;5096785;28;20235;-34
2020/12/17 06:21:12;;;;;;;18.47;16.40;;;;;;;11.25;100.00;100177.88;5097241;28;20191;-35
2020/12/17 06:23:59;;;;;;;9.37;6.67;;;;;;;11.17;100.00;100184.91;5097002;28;20199;-36
2020/12/17 06:26:51;;;;;;;8.70;7.53;;;;;;;11.27;100.00;100189.09;5096793;28;20200;-37
2020/12/17 06:29:48;;;;;;;21.53;19.30;;;;;;;11.31;100.00;100193.34;5096774;28;20373;-33
2020/12/17 06:32:35;;;;;;;9.90;8.97;;;;;;;11.15;100.00;100189.25;5096560;28;20261;-39
2020/12/17 06:35:49;;;;;;;9.70;8.90;;;;;;;11.22;100.00;100201.22;5096851;28;20349;-36
2020/12/17 06:38:38;;;;;;;11.93;10.83;;;;;;;11.12;100.00;100191.88;5095957;28;20238;-36
2020/12/17 06:41:30;;;;;;;10.07;9.07;;;;;;;11.27;100.00;100206.34;5095728;28;20270;-35
2020/12/17 06:44:27;;;;;;;9.50;8.60;;;;;;;11.33;100.00;100208.88;5097212;28;20191;-38
2020/12/17 06:47:13;;;;;;;10.20;8.60;;;;;;;11.20;100.00;100202.13;5100220;28;20199;-33
2020/12/17 06:50:30;;;;;;;8.83;7.17;;;;;;;11.16;100.00;100203.91;5099672;28;20227;-37
2020/12/17 06:53:18;;;;;;;10.93;7.20;;;;;;;11.29;100.00;100213.22;5064126;28;20195;-37
2020/12/17 06:56:03;;;;;;;7.67;6.97;;;;;;;11.13;100.00;100208.28;5100307;28;20199;-37
2020/12/17 06:59:09;;;;;;;8.00;7.20;;;;;;;11.13;100.00;100211.72;5099717;28;20230;-38
2020/12/17 07:01:55;;;;;;;9.93;7.20;;;;;;;11.05;100.00;100211.78;5099522;28;20260;-38
2020/12/17 07:04:42;;;;;;;7.60;6.77;;;;;;;11.23;100.00;100209.84;5099641;28;20203;-34
2020/12/17 07:07:27;;;;;;;9.23;7.13;;;;;;;11.23;100.00;100218.47;5099996;28;20535;-34
2020/12/17 07:10:26;;;;;;;9.83;7.47;;;;;;;11.13;100.00;100228.97;5100107;28;20281;-34
2020/12/17 07:13:38;;;;;;;8.80;7.90;;;;;;;11.17;100.00;100218.56;5099547;28;20300;-35
2020/12/17 07:16:26;;;;;;;10.77;7.00;;;;;;;11.14;100.00;100228.09;5099866;28;20195;-36
2020/12/17 07:19:23;;;;;;;9.40;6.93;;;;;;;11.13;100.00;100236.75;5099377;28;20199;-34
2020/12/17 07:22:11;;;;;;;11.40;8.73;;;;;;;11.03;100.00;100243.75;5099355;28;20195;-34
2020/12/17 07:24:57;;;;;;;9.37;8.40;;;;;;;11.11;100.00;100241.09;5099707;28;20199;-35
2020/12/17 07:27:50;;;;;;;9.40;7.87;;;;;;;11.12;100.00;100242.81;5098616;28;20203;-37
2020/12/17 07:30:36;;;;;;;9.97;7.33;;;;;;;11.12;100.00;100248.84;5098857;28;20218;-36
2020/12/17 07:33:43;;;;;;;8.70;7.77;;;;;;;11.30;100.00;100253.78;5099034;28;20670;-33
2020/12/17 07:36:44;;;;;;;10.20;7.97;;;;;;;11.16;100.00;100250.53;5098810;28;20199;-37
2020/12/17 07:39:32;;;;;;;12.60;7.40;;;;;;;11.11;100.00;100256.63;5098830;28;20230;-36
2020/12/17 07:42:19;;;;;;;9.07;8.17;;;;;;;11.05;100.00;100267.88;5099096;28;20207;-37
2020/12/17 07:45:07;;;;;;;9.73;8.37;;;;;;;11.15;100.00;100266.94;5099473;28;20199;-36
2020/12/17 07:47:52;;;;;;;9.93;8.33;;;;;;;11.12;100.00;100277.31;5099354;28;20226;-35
2020/12/17 07:50:39;;;;;;;8.67;7.43;;;;;;;10.93;100.00;100287.00;5098309;28;20624;-39
2020/12/17 07:53:26;;;;;;;10.10;8.97;;;;;;;10.97;100.00;100290.44;5098305;28;20257;-36
2020/12/17 07:56:12;;;;;;;13.77;8.90;;;;;;;10.78;100.00;100292.34;5096833;28;20644;-32
2020/12/17 07:59:04;;;;;;;12.90;9.37;;;;;;;10.68;100.00;100288.09;5098183;28;20200;-33
2020/12/17 08:02:05;;;;;;;11.33;9.60;;;;;;;10.63;100.00;100297.63;5098466;28;20215;-38
2020/12/17 08:04:53;;;;;;;13.30;10.03;;;;;;;10.66;100.00;100311.38;5098131;28;20277;-34
2020/12/17 08:07:39;;;;;;;11.93;9.93;;;;;;;10.59;100.00;100306.28;5098469;28;20198;-34
2020/12/17 08:10:26;;;;;;;11.30;10.13;;;;;;;10.53;100.00;100314.94;5098176;28;20231;-35
2020/12/17 08:13:15;;;;;;;12.60;10.03;;;;;;;10.56;100.00;100322.69;5098246;28;20195;-34
2020/12/17 08:16:04;;;;;;;12.43;10.87;;;;;;;10.57;100.00;100324.41;5098368;28;20200;-36
2020/12/17 08:18:57;;;;;;;11.50;10.37;;;;;;;10.58;100.00;100328.72;5097822;28;20210;-34
2020/12/17 08:21:49;;;;;;;15.43;11.00;;;;;;;10.54;100.00;100336.50;5091133;28;20481;-37
2020/12/17 08:24:37;;;;;;;13.07;11.07;;;;;;;10.49;100.00;100340.84;5077849;28;20670;-34
2020/12/17 08:27:24;;;;;;;12.87;11.53;;;;;;;10.29;100.00;100341.84;5077625;28;20220;-34
2020/12/17 08:30:09;;;;;;;15.53;13.43;;;;;;;10.40;100.00;100354.69;5077738;28;20226;-36
2020/12/17 08:32:55;;;;;;;16.60;12.77;;;;;;;10.33;100.00;100350.44;5077343;28;20195;-35
2020/12/17 08:35:42;;;;;;;15.17;12.50;;;;;;;10.15;100.00;100355.69;5076996;28;20260;-33
2020/12/17 08:38:32;;;;;;;14.73;12.47;;;;;;;10.33;100.00;100355.63;5077122;28;20251;-37
2020/12/17 08:41:20;;;;;;;14.13;12.23;;;;;;;10.34;100.00;100365.09;5077017;28;20197;-35
2020/12/17 08:44:07;;;;;;;14.20;11.93;;;;;;;10.31;100.00;100371.13;5077227;28;20692;-34
2020/12/17 08:46:57;;;;;;;16.07;12.70;;;;;;;10.35;100.00;100372.84;5081343;28;20608;-32
2020/12/17 08:49:46;;;;;;;12.97;10.97;;;;;;;10.39;100.00;100372.81;5097266;28;20195;-35
2020/12/17 08:52:33;;;;;;;13.33;10.07;;;;;;;10.22;100.00;100373.75;5095435;28;20206;-33
2020/12/17 08:55:23;;;;;;;13.70;11.07;;;;;;;10.26;100.00;100385.81;5076922;28;20199;-36
2020/12/17 08:58:09;;;;;;;11.13;10.03;;;;;;;10.42;100.00;100391.75;5077103;28;20200;-33
2020/12/17 09:00:54;;;;;;;15.57;10.10;;;;;;;10.48;100.00;100398.63;5081023;28;20615;-33
2020/12/17 09:03:44;;;;;;;14.03;10.23;;;;;;;10.39;100.00;100398.69;5088405;28;20605;-33
2020/12/17 09:06:34;;;;;;;12.17;10.17;;;;;;;10.47;100.00;100397.75;5096631;28;20305;-35
2020/12/17 09:09:25;;;;;;;11.20;9.40;;;;;;;10.44;100.00;100404.66;5097632;28;20197;-33
2020/12/17 09:12:29;;;;;;;10.93;9.03;;;;;;;10.44;100.00;100420.19;5097452;28;20470;-34
2020/12/17 09:15:15;;;;;;;11.13;9.23;;;;;;;10.34;100.00;100411.63;5096967;28;20687;-36
2020/12/17 09:18:08;;;;;;;12.83;9.53;;;;;;;10.40;100.00;100415.88;5097160;28;20208;-34
2020/12/17 09:21:11;;;;;;;11.03;9.57;;;;;;;10.54;100.00;100437.38;5097198;28;20194;-34
2020/12/17 09:23:58;;;;;;;9.93;8.93;;;;;;;10.35;100.00;100434.03;5096915;28;20196;-35
2020/12/17 09:26:47;;;;;;;11.53;10.17;;;;;;;10.35;100.00;100442.66;5097166;28;20199;-37
2020/12/17 09:29:33;;;;;;;11.13;10.03;;;;;;;10.36;100.00;100446.09;5097019;28;20285;-37
2020/12/17 09:32:19;;;;;;;13.53;10.43;;;;;;;10.43;100.00;100454.66;5096360;28;20211;-38
2020/12/17 09:35:08;;;;;;;11.17;9.23;;;;;;;10.48;100.00;100455.50;5097023;28;20211;-34
2020/12/17 09:37:59;;;;;;;13.07;9.53;;;;;;;10.47;100.00;100462.41;5097042;28;20243;-39
2020/12/17 09:40:56;;;;;;;15.13;10.10;;;;;;;10.80;100.00;100460.50;5097165;28;20192;-38
2020/12/17 09:43:48;;;;;;;12.93;9.03;;;;;;;10.72;100.00;100470.06;5096762;28;20349;-37
2020/12/17 09:46:44;;;;;;;9.93;8.93;;;;;;;10.60;100.00;100466.66;5096500;28;20202;-38
2020/12/17 09:49:33;;;;;;;12.03;10.30;;;;;;;10.52;100.00;100462.41;5096614;28;20436;-32
2020/12/17 09:52:25;;;;;;;9.90;8.90;;;;;;;10.47;100.00;100469.31;5096357;28;20199;-37
2020/12/17 09:55:15;;;;;;;11.60;10.37;;;;;;;10.66;100.00;100478.69;5096354;28;20195;-35
2020/12/17 09:58:01;;;;;;;10.47;8.93;;;;;;;10.73;100.00;100476.94;5096284;28;20261;-39
2020/12/17 10:00:50;;;;;;;11.43;9.70;;;;;;;10.64;100.00;100475.25;5096564;28;20273;-35
2020/12/17 10:03:35;;;;;;;10.07;9.07;;;;;;;10.52;100.00;100475.34;5096775;28;20701;-36
2020/12/17 10:06:22;;;;;;;9.17;8.03;;;;;;;10.67;100.00;100478.69;5096709;28;20207;-37
2020/12/17 10:09:08;;;;;;;13.30;8.37;;;;;;;10.45;100.00;100483.97;5096843;28;20294;-35
2020/12/17 10:11:55;;;;;;;8.53;7.37;;;;;;;10.69;100.00;100483.84;5096771;28;20230;-35
2020/12/17 10:14:41;;;;;;;8.20;7.40;;;;;;;10.50;100.00;100496.03;5095991;28;20194;-38
2020/12/17 10:17:27;;;;;;;8.10;7.30;;;;;;;11.64;100.00;100500.41;5096340;28;20199;-37
2020/12/17 10:20:12;;;;;;;7.27;5.90;;;;;;;11.32;100.00;100486.88;5099244;28;20203;-33
2020/12/17 10:23:04;;;;;;;7.00;5.33;;;;;;;11.37;100.00;100501.53;5100272;28;20484;-35
2020/12/17 10:25:52;;;;;;;7.37;6.00;;;;;;;11.03;100.00;100502.63;5100483;28;20195;-37
2020/12/17 10:28:41;;;;;;;6.17;5.57;;;;;;;10.87;100.00;100501.00;5100155;28;20203;-35
2020/12/17 10:31:27;;;;;;;5.70;4.50;;;;;;;11.15;100.00;100515.50;5100491;28;20234;-35
2020/12/17 10:34:13;;;;;;;5.00;4.50;;;;;;;11.36;100.00;100506.72;5099941;28;20203;-34
2020/12/17 10:36:59;;;;;;;4.63;4.23;;;;;;;11.30;100.00;100517.09;5099176;28;20191;-36
2020/12/17 10:39:48;;;;;;;5.73;4.50;;;;;;;11.28;100.00;100517.13;5100196;28;20270;-35
2020/12/17 10:42:43;;;;;;;4.50;4.10;;;;;;;11.00;100.00;100520.75;5099984;28;20628;-37
2020/12/17 10:45:31;;;;;;;4.30;3.80;;;;;;;11.21;100.00;100523.19;5099834;28;20265;-33
2020/12/17 10:48:17;;;;;;;4.07;3.50;;;;;;;11.07;100.00;100524.16;5099134;28;20261;-37
2020/12/17 10:51:04;;;;;;;5.13;4.03;;;;;;;11.24;100.00;100527.50;5097431;28;20289;-35
2020/12/17 10:53:49;;;;;;;4.87;3.73;;;;;;;11.08;100.00;100521.56;5078898;28;20598;-38
2020/12/17 10:56:37;;;;;;;5.67;3.67;;;;;;;11.15;100.00;100520.69;5078910;28;20905;-36
2020/12/17 10:59:23;;;;;;;3.70;3.40;;;;;;;11.49;100.00;100526.44;5079601;28;20203;-37
2020/12/17 11:02:11;;;;;;;4.07;3.27;;;;;;;11.11;100.00;100521.56;5078835;28;20196;-36
2020/12/17 11:04:59;;;;;;;3.90;3.50;;;;;;;11.11;100.00;100521.56;5079290;28;20204;-38
2020/12/17 11:07:48;;;;;;;5.13;3.40;;;;;;;11.19;100.00;100526.69;5079152;28;20599;-34
2020/12/17 11:10:34;;;;;;;7.17;4.37;;;;;;;11.11;100.00;100524.16;5078617;28;20231;-35
2020/12/17 11:13:35;;;;;;;3.73;3.40;;;;;;;11.11;100.00;100529.31;5079429;28;20257;-36
2020/12/17 11:16:21;;;;;;;5.70;3.40;;;;;;;10.90;100.00;100530.31;5079281;28;20291;-37
2020/12/17 11:19:08;;;;;;;3.50;3.10;;;;;;;11.05;100.00;100532.81;5078820;28;20342;-33
2020/12/17 11:21:59;;;;;;;2.83;2.63;;;;;;;11.13;100.00;100529.31;5079262;28;20466;-33
2020/12/17 11:24:45;;;;;;;3.27;2.97;;;;;;;10.92;100.00;100525.13;5079121;28;20325;-34
2020/12/17 11:27:31;;;;;;;3.83;3.27;;;;;;;11.04;100.00;100519.88;5078846;28;20307;-35
2020/12/17 11:30:17;;;;;;;4.57;3.10;;;;;;;11.44;100.00;100520.44;5078726;28;20224;-35
2020/12/17 11:33:10;;;;;;;4.23;2.93;;;;;;;11.35;100.00;100525.72;5079142;28;20204;-34
2020/12/17 11:35:58;;;;;;;4.53;3.07;;;;;;;11.70;100.00;100517.63;5079142;28;20666;-34
2020/12/17 11:38:44;;;;;;;5.03;3.23;;;;;;;11.67;100.00;100517.66;5078612;28;20358;-39
2020/12/17 11:41:31;;;;;;;3.43;2.93;;;;;;;11.42;100.00;100526.50;5084618;28;20227;-38
2020/12/17 11:44:18;;;;;;;4.53;3.10;;;;;;;11.49;100.00;100528.19;5098961;28;20203;-34
2020/12/17 11:47:05;;;;;;;3.60;3.03;;;;;;;11.60;100.00;100536.72;5098123;28;20345;-35
2020/12/17 11:49:50;;;;;;;2.63;2.43;;;;;;;11.41;100.00;100533.41;5098447;28;20207;-37
2020/12/17 11:52:37;;;;;;;2.50;2.30;;;;;;;11.54;100.00;100531.59;5098923;28;20183;-36
2020/12/17 11:55:22;;;;;;;2.63;2.43;;;;;;;11.44;100.00;100538.56;5098258;28;20336;-36
2020/12/17 11:58:10;;;;;;;3.07;2.53;;;;;;;11.51;100.00;100547.16;5097041;28;20207;-34
2020/12/17 12:00:56;;;;;;;4.30;3.00;;;;;;;11.31;100.00;100539.56;5097880;28;20195;-37
2020/12/17 12:03:42;;;;;;;2.60;2.40;;;;;;;11.19;100.00;100540.47;5078751;28;20204;-36
2020/12/17 12:06:31;;;;;;;4.70;2.57;;;;;;;11.30;100.00;100543.88;5079772;28;20212;-37
2020/12/17 12:09:18;;;;;;;3.87;2.53;;;;;;;11.55;100.00;100551.47;5087573;28;20203;-35
2020/12/17 12:12:05;;;;;;;4.63;3.50;;;;;;;11.56;100.00;100558.38;5098651;28;20632;-33
2020/12/17 12:14:52;;;;;;;6.40;3.20;;;;;;;11.39;100.00;100559.31;5096031;28;20277;-33
2020/12/17 12:17:40;;;;;;;6.27;2.90;;;;;;;11.38;100.00;100551.59;5088791;28;20436;-35
2020/12/17 12:20:26;;;;;;;3.10;2.80;;;;;;;11.51;100.00;100558.38;5078416;28;20204;-37
2020/12/17 12:23:15;;;;;;;4.97;2.67;;;;;;;11.37;100.00;100555.91;5094525;28;20199;-35
2020/12/17 12:26:02;;;;;;;5.00;2.77;;;;;;;11.41;100.00;100546.38;5097651;28;20208;-34
2020/12/17 12:28:47;;;;;;;5.20;2.70;;;;;;;11.36;100.00;100546.41;5094184;28;20196;-39
2020/12/17 12:31:34;;;;;;;3.10;2.80;;;;;;;11.36;100.00;100554.19;5089076;28;20230;-38
2020/12/17 12:34:25;;;;;;;3.03;2.60;;;;;;;11.63;100.00;100554.84;5084818;28;20200;-35
2020/12/17 12:37:11;;;;;;;4.70;2.83;;;;;;;12.36;100.00;100552.44;5083117;28;20222;-39
2020/12/17 12:40:00;;;;;;;3.30;2.50;;;;;;;11.70;100.00;100559.09;5092050;28;20195;-36
2020/12/17 12:42:49;;;;;;;6.20;2.80;;;;;;;11.30;100.00;100566.31;5094987;28;20712;-33
2020/12/17 12:45:36;;;;;;;5.20;2.83;;;;;;;11.57;100.00;100570.44;5076937;28;20220;-35
2020/12/17 12:48:25;;;;;;;4.63;2.87;;;;;;;12.02;100.00;100567.47;5077031;28;20274;-39
2020/12/17 12:51:11;;;;;;;3.93;2.13;;;;;;;12.40;100.00;100567.06;5076797;28;20235;-37